createdAt,value
2018-11-05T00:01:40.172Z,86.83
2018-11-05T00:04:08.379Z,79.80
2018-11-05T00:06:36.527Z,84.60
2018-11-05T00:09:07.656Z,80.97
2018-11-05T00:11:35.743Z,99.37
2018-11-05T00:14:03.925Z,73.10
2018-11-05T00:16:32.093Z,81.20
2018-11-05T00:19:01.212Z,86.33
2018-11-05T00:21:29.342Z,81.33
2018-11-05T00:23:57.459Z,88.90
2018-11-05T00:26:25.648Z,79.87
2018-11-05T00:28:53.766Z,75.23
2018-11-05T00:31:21.893Z,74.63
2018-11-05T00:33:50.003Z,94.83
2018-11-05T00:36:18.131Z,78.80
2018-11-05T00:38:46.265Z,81.53
2018-11-05T00:41:14.471Z,83.20
2018-11-05T00:43:42.665Z,81.23
2018-11-05T00:46:10.813Z,69.20
2018-11-05T00:48:38.971Z,84.20
2018-11-05T00:51:07.043Z,83.27
2018-11-05T00:53:35.226Z,77.60
2018-11-05T00:56:03.399Z,90.93
2018-11-05T00:58:31.596Z,76.47
2018-11-05T01:00:59.736Z,99.73
2018-11-05T01:03:27.921Z,85.47
2018-11-05T01:05:56.086Z,79.53
2018-11-05T01:08:27.508Z,82.20
2018-11-05T01:10:56.650Z,86.33
2018-11-05T01:13:25.712Z,83.67
2018-11-05T01:15:53.791Z,85.50
2018-11-05T01:18:21.858Z,86.33
2018-11-05T01:20:49.959Z,91.43
2018-11-05T01:23:18.123Z,86.17
2018-11-05T01:25:46.328Z,94.57
2018-11-05T01:28:14.508Z,99.63
2018-11-05T01:30:42.661Z,80.87
2018-11-05T01:33:10.833Z,81.63
2018-11-05T01:35:38.986Z,86.43
2018-11-05T01:38:07.189Z,86.53
2018-11-05T01:40:35.347Z,90.57
2018-11-05T01:43:03.537Z,77.90
2018-11-05T01:45:32.696Z,80.43
2018-11-05T01:48:00.788Z,102.43
2018-11-05T01:50:29.895Z,90.17
2018-11-05T01:52:58.059Z,76.90
2018-11-05T01:55:26.246Z,98.17
2018-11-05T01:57:54.407Z,94.33
2018-11-05T02:00:22.564Z,96.10
2018-11-05T02:02:50.635Z,97.73
2018-11-05T02:05:18.707Z,92.87
2018-11-05T02:07:46.984Z,86.53
2018-11-05T02:10:16.368Z,86.20
2018-11-05T02:12:44.391Z,96.23
2018-11-05T02:15:12.834Z,76.10
2018-11-05T02:17:42.299Z,76.20
2018-11-05T02:20:10.529Z,83.67
2018-11-05T02:22:39.096Z,94.30
2018-11-05T02:25:07.867Z,79.53
2018-11-05T02:27:35.978Z,80.13
2018-11-05T02:30:05.924Z,84.70
2018-11-05T02:32:34.079Z,75.60
2018-11-05T02:35:02.261Z,97.00
2018-11-05T02:37:30.403Z,77.53
2018-11-05T02:39:58.495Z,86.67
2018-11-05T02:42:26.701Z,91.37
2018-11-05T02:44:54.874Z,73.43
2018-11-05T02:47:22.994Z,89.90
2018-11-05T02:49:51.096Z,94.67
2018-11-05T02:52:19.271Z,92.73
2018-11-05T02:54:47.436Z,92.03
2018-11-05T02:57:15.602Z,99.80
2018-11-05T02:59:43.891Z,98.83
2018-11-05T03:02:12.120Z,93.67
2018-11-05T03:04:40.213Z,87.90
2018-11-05T03:07:08.327Z,78.37
2018-11-05T03:09:36.522Z,84.13
2018-11-05T03:12:05.289Z,87.10
2018-11-05T03:14:36.218Z,83.60
2018-11-05T03:17:04.714Z,75.90
2018-11-05T03:19:32.869Z,92.17
2018-11-05T03:22:01.085Z,75.60
2018-11-05T03:24:29.199Z,72.63
2018-11-05T03:26:57.331Z,87.97
2018-11-05T03:29:25.505Z,74.40
2018-11-05T03:31:53.630Z,86.30
2018-11-05T03:34:21.833Z,87.47
2018-11-05T03:36:50.009Z,83.30
2018-11-05T03:39:18.156Z,73.83
2018-11-05T03:41:46.312Z,84.13
2018-11-05T03:44:14.521Z,74.00
2018-11-05T03:46:42.676Z,72.40
2018-11-05T03:49:11.043Z,72.63
2018-11-05T03:51:39.147Z,71.00
2018-11-05T03:54:08.013Z,75.77
2018-11-05T03:56:36.200Z,70.60
2018-11-05T03:59:05.891Z,70.37
2018-11-05T04:01:33.996Z,75.50
2018-11-05T04:04:02.213Z,66.83
2018-11-05T04:06:30.354Z,56.33
2018-11-05T04:08:58.515Z,67.17
2018-11-05T04:11:26.759Z,62.17
2018-11-05T04:13:54.856Z,66.73
2018-11-05T04:16:25.156Z,67.77
2018-11-05T04:18:53.270Z,65.93
2018-11-05T04:21:21.455Z,74.43
2018-11-05T04:23:49.631Z,64.00
2018-11-05T04:26:17.813Z,61.57
2018-11-05T04:28:45.977Z,67.23
2018-11-05T04:31:14.136Z,56.20
2018-11-05T04:33:42.316Z,58.63
2018-11-05T04:36:10.480Z,59.93
2018-11-05T04:38:38.754Z,63.07
2018-11-05T04:41:08.876Z,54.37
2018-11-05T04:43:37.049Z,60.77
2018-11-05T04:46:05.653Z,50.53
2018-11-05T04:48:33.823Z,63.53
2018-11-05T04:51:01.992Z,53.23
2018-11-05T04:53:30.179Z,58.40
2018-11-05T04:55:58.324Z,47.93
2018-11-05T04:58:26.527Z,57.57
2018-11-05T05:00:54.691Z,67.10
2018-11-05T05:03:22.946Z,65.00
2018-11-05T05:05:51.048Z,62.10
2018-11-05T05:08:19.227Z,53.23
2018-11-05T05:10:47.368Z,44.80
2018-11-05T05:13:15.466Z,51.60
2018-11-05T05:15:43.611Z,49.47
2018-11-05T05:18:11.844Z,47.70
2018-11-05T05:20:39.994Z,52.23
2018-11-05T05:23:08.248Z,43.10
2018-11-05T05:25:36.328Z,43.20
2018-11-05T05:28:04.482Z,47.37
2018-11-05T05:30:32.706Z,48.97
2018-11-05T05:33:00.914Z,57.37
2018-11-05T05:35:29.040Z,58.57
2018-11-05T05:37:57.254Z,55.43
2018-11-05T05:40:25.364Z,49.63
2018-11-05T05:42:53.541Z,52.70
2018-11-05T05:45:21.728Z,41.13
2018-11-05T05:47:50.824Z,50.90
2018-11-05T05:50:19.093Z,47.33
2018-11-05T05:52:48.580Z,50.67
2018-11-05T05:55:16.857Z,50.97
2018-11-05T05:57:45.224Z,53.37
2018-11-05T06:00:15.654Z,54.40
2018-11-05T06:02:43.780Z,46.83
2018-11-05T06:05:12.955Z,54.20
2018-11-05T06:07:43.555Z,44.77
2018-11-05T06:10:12.861Z,52.47
2018-11-05T06:12:40.981Z,50.07
2018-11-05T06:15:12.396Z,55.23
2018-11-05T06:17:41.092Z,49.40
2018-11-05T06:20:11.809Z,41.40
2018-11-05T06:22:39.930Z,46.90
2018-11-05T06:25:08.213Z,47.63
2018-11-05T06:27:36.754Z,48.50
2018-11-05T06:30:08.322Z,64.17
2018-11-05T06:32:36.501Z,46.27
2018-11-05T06:35:05.297Z,55.60
2018-11-05T06:37:33.463Z,57.53
2018-11-05T06:40:01.596Z,49.13
2018-11-05T06:42:29.881Z,47.17
2018-11-05T06:44:58.091Z,56.43
2018-11-05T06:47:26.147Z,51.50
2018-11-05T06:49:54.331Z,46.13
2018-11-05T06:52:22.523Z,52.40
2018-11-05T06:54:50.705Z,46.80
2018-11-05T06:57:18.893Z,45.90
2018-11-05T06:59:47.045Z,46.63
2018-11-05T07:02:15.223Z,50.57
2018-11-05T07:04:43.419Z,45.53
2018-11-05T07:07:11.563Z,51.47
2018-11-05T07:09:39.780Z,45.83
2018-11-05T07:12:07.909Z,45.33
2018-11-05T07:14:36.110Z,52.00
2018-11-05T07:17:04.430Z,46.70
2018-11-05T07:19:32.659Z,63.60
2018-11-05T07:22:00.890Z,68.10
2018-11-05T07:24:29.085Z,50.83
2018-11-05T07:26:57.275Z,63.73
2018-11-05T07:29:25.471Z,40.33
2018-11-05T07:31:53.667Z,45.93
2018-11-05T07:34:21.832Z,49.60
2018-11-05T07:36:49.964Z,44.33
2018-11-05T07:39:18.152Z,66.67
2018-11-05T07:41:46.337Z,80.73
2018-11-05T07:44:14.514Z,61.80
2018-11-05T07:46:42.675Z,48.83
2018-11-05T07:49:10.807Z,49.40
2018-11-05T07:51:39.016Z,77.57
2018-11-05T07:54:09.129Z,59.77
2018-11-05T07:56:37.338Z,53.90
2018-11-05T07:59:06.495Z,54.47
2018-11-05T08:01:35.624Z,62.40
2018-11-05T08:04:03.830Z,55.43
2018-11-05T08:06:31.908Z,53.40
2018-11-05T08:09:01.044Z,55.33
2018-11-05T08:11:29.208Z,47.03
2018-11-05T08:13:57.359Z,43.80
2018-11-05T08:16:25.487Z,43.10
2018-11-05T08:18:53.620Z,40.60
2018-11-05T08:21:21.796Z,39.43
2018-11-05T08:23:49.972Z,49.27
2018-11-05T08:26:18.169Z,50.13
2018-11-05T08:28:46.389Z,43.40
2018-11-05T08:31:15.572Z,37.87
2018-11-05T08:40:44.069Z,42.37
2018-11-05T08:43:12.221Z,46.73
2018-11-05T08:45:43.374Z,43.50
2018-11-05T08:48:11.585Z,55.37
2018-11-05T08:50:39.907Z,38.80
2018-11-05T08:53:09.128Z,48.97
2018-11-05T08:55:37.297Z,47.67
2018-11-05T08:58:06.556Z,44.37
2018-11-05T09:00:40.333Z,49.13
2018-11-05T09:03:08.787Z,52.50
2018-11-05T09:05:36.966Z,54.13
2018-11-05T09:08:05.191Z,42.23
2018-11-05T09:10:33.365Z,44.53
2018-11-05T09:13:01.508Z,48.13
2018-11-05T09:15:29.657Z,41.73
2018-11-05T09:17:57.827Z,43.93
2018-11-05T09:20:26.041Z,43.83
2018-11-05T09:22:54.180Z,44.40
2018-11-05T09:25:22.433Z,44.23
2018-11-05T09:29:15.042Z,56.63
2018-11-05T09:31:43.234Z,65.83
2018-11-05T09:34:12.377Z,46.97
2018-11-05T09:36:40.590Z,61.53
2018-11-05T09:39:09.449Z,40.50
2018-11-05T09:41:37.632Z,56.87
2018-11-05T09:44:05.803Z,64.20
2018-11-05T09:46:34.907Z,48.33
2018-11-05T09:49:03.072Z,52.57
2018-11-05T09:51:32.270Z,49.93
2018-11-05T09:54:00.469Z,59.37
2018-11-05T09:56:28.624Z,42.93
2018-11-05T09:58:56.748Z,59.30
2018-11-05T10:01:24.859Z,55.57
2018-11-05T10:03:54.916Z,43.80
2018-11-05T10:06:23.540Z,41.50
2018-11-05T10:08:51.761Z,46.83
2018-11-05T10:11:20.200Z,46.80
2018-11-05T10:13:50.360Z,45.40
2018-11-05T10:16:18.605Z,43.40
2018-11-05T10:18:47.724Z,46.63
2018-11-05T10:21:15.904Z,44.23
2018-11-05T10:23:44.044Z,52.23
2018-11-05T10:26:12.328Z,56.10
2018-11-05T10:28:40.504Z,54.93
2018-11-05T10:31:08.712Z,56.77
2018-11-05T10:33:36.955Z,48.70
2018-11-05T10:36:05.012Z,40.27
2018-11-05T10:38:33.298Z,44.57
2018-11-05T10:41:01.395Z,44.50
2018-11-05T10:43:29.602Z,49.07
2018-11-05T10:45:58.834Z,45.00
2018-11-05T10:48:26.928Z,43.03
2018-11-05T10:50:55.117Z,56.73
2018-11-05T10:53:23.383Z,58.70
2018-11-05T10:55:51.469Z,47.10
2018-11-05T10:58:19.680Z,49.50
2018-11-05T11:00:53.193Z,36.13
2018-11-05T11:03:21.306Z,44.53
2018-11-05T11:05:49.549Z,57.50
2018-11-05T11:08:17.654Z,42.07
2018-11-05T11:10:45.805Z,46.17
2018-11-05T11:13:15.960Z,43.83
2018-11-05T11:15:44.115Z,43.80
2018-11-05T11:18:12.295Z,44.10
2018-11-05T11:20:42.416Z,42.60
2018-11-05T11:23:11.518Z,41.37
2018-11-05T11:25:40.733Z,44.03
2018-11-05T11:28:09.048Z,42.67
2018-11-05T11:30:38.159Z,41.00
2018-11-05T11:33:06.428Z,50.20
2018-11-05T11:35:35.555Z,53.00
2018-11-05T11:38:03.788Z,48.70
2018-11-05T11:40:33.051Z,46.30
2018-11-05T11:43:02.223Z,53.13
2018-11-05T11:45:33.407Z,60.93
2018-11-05T11:48:01.551Z,45.13
2018-11-05T11:50:30.789Z,64.17
2018-11-05T11:52:58.986Z,42.77
2018-11-05T11:55:28.015Z,44.70
2018-11-05T11:57:56.173Z,41.27
2018-11-05T12:00:25.483Z,46.63
2018-11-05T12:02:54.187Z,45.70
2018-11-05T12:05:22.567Z,51.60
2018-11-05T12:07:52.575Z,45.20
2018-11-05T12:10:22.596Z,50.00
2018-11-05T12:12:52.760Z,52.57
2018-11-05T12:15:21.799Z,42.97
2018-11-05T12:17:51.123Z,50.90
2018-11-05T12:20:20.659Z,56.87
2018-11-05T12:22:49.307Z,49.30
2018-11-05T12:25:17.514Z,48.67
2018-11-05T12:27:45.695Z,51.87
2018-11-05T12:30:21.068Z,56.00
2018-11-05T12:32:49.988Z,51.40
2018-11-05T12:35:18.188Z,44.47
2018-11-05T12:37:47.470Z,60.80
2018-11-05T12:40:18.623Z,55.77
2018-11-05T12:42:47.854Z,68.37
2018-11-05T12:45:16.023Z,59.87
2018-11-05T12:47:44.197Z,61.67
2018-11-05T12:50:15.788Z,45.47
2018-11-05T12:52:45.316Z,49.17
2018-11-05T12:55:13.561Z,52.03
2018-11-05T12:57:41.781Z,51.70
2018-11-05T13:00:13.764Z,43.60
2018-11-05T13:02:41.935Z,46.37
2018-11-05T13:05:11.231Z,49.50
2018-11-05T13:07:39.501Z,46.73
2018-11-05T13:10:11.087Z,39.77
2018-11-05T13:12:39.387Z,53.83
2018-11-05T13:15:08.069Z,40.03
2018-11-05T13:17:36.465Z,52.10
2018-11-05T13:20:05.167Z,44.93
2018-11-05T13:22:33.360Z,52.27
2018-11-05T13:25:01.554Z,51.03
2018-11-05T13:27:29.730Z,49.07
2018-11-05T13:29:57.883Z,52.80
2018-11-05T13:32:26.053Z,55.53
2018-11-05T13:34:54.219Z,52.33
2018-11-05T13:37:22.704Z,56.03
2018-11-05T13:39:52.524Z,41.20
2018-11-05T13:42:20.709Z,51.77
2018-11-05T13:44:49.995Z,58.00
2018-11-05T13:47:18.787Z,52.87
2018-11-05T13:49:48.552Z,49.43
2018-11-05T13:52:16.534Z,54.70
2018-11-05T13:54:44.823Z,45.10
2018-11-05T13:57:12.822Z,48.37
2018-11-05T13:59:40.971Z,46.87
2018-11-05T14:02:09.323Z,43.13
2018-11-05T14:04:37.645Z,48.90
2018-11-05T14:07:05.730Z,52.87
2018-11-05T14:09:33.881Z,60.53
2018-11-05T14:12:02.075Z,48.57
2018-11-05T14:14:30.269Z,49.73
2018-11-05T14:16:58.575Z,46.30
2018-11-05T14:19:26.721Z,47.27
2018-11-05T14:21:54.914Z,47.80
2018-11-05T14:24:24.141Z,54.63
2018-11-05T14:26:52.641Z,48.03
2018-11-05T14:29:22.316Z,47.77
2018-11-05T14:31:50.048Z,47.10
2018-11-05T14:34:19.232Z,43.10
2018-11-05T14:36:47.511Z,41.50
2018-11-05T14:39:16.641Z,40.23
2018-11-05T14:43:53.976Z,46.40
2018-11-05T14:46:24.156Z,39.17
2018-11-05T14:48:52.283Z,48.13
2018-11-05T14:51:20.549Z,64.53
2018-11-05T14:53:48.775Z,46.60
2018-11-05T14:56:16.937Z,40.63
2018-11-05T14:58:45.191Z,50.27
2018-11-05T15:01:13.392Z,48.13
2018-11-05T15:03:41.844Z,47.63
2018-11-05T15:06:10.034Z,57.07
2018-11-05T15:08:38.257Z,40.17
2018-11-05T15:11:12.400Z,45.30
2018-11-05T15:13:41.509Z,39.70
2018-11-05T15:16:13.378Z,45.50
2018-11-05T15:18:41.991Z,50.97
2018-11-05T15:21:12.165Z,49.83
2018-11-05T15:23:48.773Z,42.80
2018-11-05T15:26:17.303Z,39.63
2018-11-05T15:28:47.467Z,41.67
2018-11-05T15:31:16.785Z,44.90
2018-11-05T15:33:46.000Z,41.43
2018-11-05T15:36:14.425Z,42.20
2018-11-05T15:38:42.742Z,38.53
2018-11-05T15:41:11.966Z,42.70
2018-11-05T15:43:40.225Z,34.77
2018-11-05T15:46:08.395Z,52.67
2018-11-05T15:48:37.249Z,45.20
2018-11-05T15:51:05.582Z,38.77
2018-11-05T15:53:34.036Z,46.60
2018-11-05T15:56:02.912Z,44.60
2018-11-05T15:58:31.119Z,36.07
2018-11-05T16:01:00.388Z,39.03
2018-11-05T16:03:28.632Z,40.80
2018-11-05T16:05:56.841Z,52.50
2018-11-05T16:08:25.039Z,50.23
2018-11-05T16:10:53.273Z,40.60
2018-11-05T16:13:21.564Z,39.20
2018-11-05T16:15:49.731Z,40.17
2018-11-05T16:18:17.905Z,37.10
2018-11-05T16:20:48.065Z,38.00
2018-11-05T16:23:16.220Z,41.23
2018-11-05T16:25:44.470Z,35.47
2018-11-05T16:28:12.556Z,36.17
2018-11-05T16:30:40.761Z,38.50
2018-11-05T16:33:08.933Z,35.57
2018-11-05T16:35:37.467Z,37.87
2018-11-05T16:38:05.420Z,44.53
2018-11-05T16:40:33.585Z,44.60
2018-11-05T16:43:01.687Z,39.73
2018-11-05T16:45:29.993Z,47.90
2018-11-05T16:47:58.168Z,41.40
2018-11-05T16:50:27.961Z,40.37
2018-11-05T16:52:57.164Z,39.30
2018-11-05T16:55:25.655Z,41.60
2018-11-05T16:57:53.856Z,44.43
2018-11-05T17:00:22.026Z,41.13
2018-11-05T17:02:50.510Z,41.57
2018-11-05T17:05:18.547Z,38.70
2018-11-05T17:07:46.701Z,39.80
2018-11-05T17:10:15.290Z,41.87
2018-11-05T17:12:43.978Z,35.73
2018-11-05T17:15:13.455Z,37.63
2018-11-05T17:17:42.104Z,45.20
2018-11-05T17:20:11.806Z,38.37
2018-11-05T17:22:40.546Z,40.93
2018-11-05T17:25:09.364Z,36.90
2018-11-05T17:27:38.022Z,41.20
2018-11-05T17:30:08.955Z,39.03
2018-11-05T17:32:37.310Z,37.77
2018-11-05T17:35:05.983Z,47.43
2018-11-05T17:37:34.172Z,43.33
2018-11-05T17:40:02.339Z,39.07
2018-11-05T17:42:30.572Z,41.50
2018-11-05T17:44:58.949Z,37.33
2018-11-05T17:47:27.285Z,39.40
2018-11-05T17:49:55.512Z,46.17
2018-11-05T17:52:23.862Z,37.77
2018-11-05T17:54:52.152Z,41.20
2018-11-05T17:57:20.348Z,41.90
2018-11-05T17:59:48.539Z,44.07
2018-11-05T18:02:24.044Z,41.00
2018-11-05T18:04:53.951Z,35.20
2018-11-05T18:07:22.523Z,42.77
2018-11-05T18:09:51.187Z,35.07
2018-11-05T18:12:19.340Z,36.60
2018-11-05T18:33:05.248Z,38.43
2018-11-05T18:35:33.368Z,42.30
2018-11-05T18:38:01.626Z,38.27
2018-11-05T18:40:29.772Z,45.17
2018-11-05T18:42:58.067Z,39.00
2018-11-05T18:45:26.432Z,39.20
2018-11-05T18:47:54.520Z,37.40
2018-11-05T18:50:22.744Z,42.27
2018-11-05T18:52:50.923Z,39.20
2018-11-05T18:55:19.095Z,39.70
2018-11-05T18:57:47.288Z,43.83
2018-11-05T19:00:22.597Z,46.67
2018-11-05T19:02:51.565Z,38.27
2018-11-05T19:05:21.866Z,45.40
2018-11-05T19:07:50.239Z,46.47
2018-11-05T19:10:23.595Z,52.00
2018-11-05T19:12:52.471Z,41.87
2018-11-05T19:15:20.925Z,37.10
2018-11-05T19:17:49.900Z,46.00
2018-11-05T19:20:18.485Z,39.00
2018-11-05T19:22:47.968Z,46.83
2018-11-05T19:25:16.877Z,47.60
2018-11-05T19:27:45.192Z,52.17
2018-11-05T19:30:15.936Z,64.97
2018-11-05T19:32:44.499Z,39.50
2018-11-05T19:35:13.272Z,35.63
2018-11-05T19:37:41.968Z,37.07
2018-11-05T19:40:11.471Z,37.03
2018-11-05T19:42:40.346Z,35.47
2018-11-05T19:45:10.996Z,36.83
2018-11-05T19:47:39.234Z,42.20
2018-11-05T19:50:09.695Z,41.17
2018-11-05T19:52:37.992Z,40.70
2018-11-05T19:55:07.664Z,41.77
2018-11-05T19:57:36.327Z,36.80
2018-11-05T20:00:06.760Z,40.03
2018-11-05T20:02:35.005Z,44.80
2018-11-05T20:05:03.312Z,44.50
2018-11-05T20:07:31.489Z,33.67
2018-11-05T20:10:00.267Z,37.67
2018-11-05T20:12:28.426Z,49.00
2018-11-05T20:14:56.694Z,36.03
2018-11-05T20:17:24.779Z,41.10
2018-11-05T20:19:54.870Z,41.17
2018-11-05T20:22:25.268Z,46.80
2018-11-05T20:24:53.752Z,43.27
2018-11-05T20:27:21.891Z,34.87
2018-11-05T20:29:50.177Z,39.13
2018-11-05T20:32:18.794Z,41.17
2018-11-05T20:34:46.496Z,43.17
2018-11-05T20:37:14.681Z,41.50
2018-11-05T20:39:42.945Z,39.00
2018-11-05T20:42:11.044Z,39.70
2018-11-05T20:44:39.198Z,45.03
2018-11-05T20:47:08.234Z,39.20
2018-11-05T20:49:36.625Z,51.50
2018-11-05T20:52:04.865Z,51.27
2018-11-05T20:54:32.980Z,40.83
2018-11-05T20:57:01.068Z,41.23
2018-11-05T20:59:30.324Z,41.07
2018-11-05T21:01:58.456Z,40.87
2018-11-05T21:04:26.678Z,41.83
2018-11-05T21:06:54.871Z,39.73
2018-11-05T21:09:22.980Z,39.60
2018-11-05T21:11:51.164Z,46.10
2018-11-05T21:14:19.346Z,41.93
2018-11-05T21:16:47.535Z,41.77
2018-11-05T21:19:15.680Z,40.57
2018-11-05T21:21:44.068Z,41.27
2018-11-05T21:24:14.879Z,46.30
2018-11-05T21:26:43.112Z,46.43
2018-11-05T21:29:11.299Z,42.30
2018-11-05T21:31:39.430Z,39.80
2018-11-05T21:34:07.708Z,45.00
2018-11-05T21:36:35.923Z,40.63
2018-11-05T21:39:06.648Z,39.17
2018-11-05T21:41:34.744Z,46.93
2018-11-05T21:44:02.849Z,46.70
2018-11-05T21:46:31.068Z,36.93
2018-11-05T21:48:59.200Z,47.50
2018-11-05T21:51:27.413Z,46.07
2018-11-05T21:53:55.658Z,43.90
2018-11-05T21:56:23.739Z,45.60
2018-11-05T21:58:51.916Z,40.70
2018-11-05T22:01:20.287Z,44.77
2018-11-05T22:03:48.458Z,52.30
2018-11-05T22:06:16.587Z,47.73
2018-11-05T22:08:44.683Z,49.43
2018-11-05T22:11:12.885Z,41.70
2018-11-05T22:13:41.038Z,42.87
2018-11-05T22:16:09.287Z,54.73
2018-11-05T22:18:37.434Z,39.40
2018-11-05T22:21:05.575Z,42.33
2018-11-05T22:23:33.743Z,48.27
2018-11-05T22:26:01.876Z,46.20
2018-11-05T22:28:30.074Z,49.43
2018-11-05T22:30:58.261Z,55.23
2018-11-05T22:33:26.488Z,49.30
2018-11-05T22:35:54.708Z,57.00
2018-11-05T22:38:23.071Z,41.83
2018-11-05T22:40:51.253Z,54.97
2018-11-05T22:43:19.468Z,48.97
2018-11-05T22:45:47.624Z,47.47
2018-11-05T22:48:15.931Z,50.80
2018-11-05T22:50:44.093Z,39.47
2018-11-05T22:53:12.231Z,51.47
2018-11-05T22:55:40.404Z,45.23
2018-11-05T22:58:08.795Z,43.37
2018-11-05T23:01:08.818Z,52.23
2018-11-05T23:03:37.023Z,45.80
2018-11-05T23:06:05.153Z,48.87
2018-11-05T23:08:33.344Z,48.03
2018-11-05T23:11:01.522Z,52.37
2018-11-05T23:13:29.701Z,45.57
2018-11-05T23:15:57.852Z,50.23
2018-11-05T23:18:26.021Z,47.60
2018-11-05T23:20:54.216Z,47.17
2018-11-05T23:23:22.416Z,46.07
2018-11-05T23:25:50.575Z,48.50
2018-11-05T23:28:18.740Z,53.00
2018-11-05T23:30:46.952Z,44.30
2018-11-05T23:33:15.378Z,50.90
2018-11-05T23:35:43.545Z,52.47
2018-11-05T23:38:11.616Z,50.40
2018-11-05T23:40:39.841Z,50.87
2018-11-05T23:43:07.968Z,52.00
2018-11-05T23:45:36.187Z,55.03
2018-11-05T23:48:04.426Z,50.33
2018-11-05T23:50:32.633Z,46.70
2018-11-05T23:53:00.808Z,67.07
2018-11-05T23:55:28.956Z,57.70
2018-11-05T23:57:57.131Z,49.80
